Time;durP1;ratioP1;P1;durP2;ratioP2;P2;SDS_P1;SDS_P2;PMS_P1;PMS_P2;Temp;Humidity;BMP_temperature;BMP_pressure;BME280_temperature;BME280_humidity;BME280_pressure;Samples;Min_cycle;Max_cycle;Signal;HPM_P1;HPM_P2
2022/10/30 00:02:18;;;;;;;13.90;6.55;;;;;;;;;;5103016;28;20546;-69
2022/10/30 00:04:44;;;;;;;10.70;6.45;;;;;;;;;;5103135;28;20403;-69
2022/10/30 00:07:10;;;;;;;15.85;7.00;;;;;;;;;;5103137;28;20210;-69
2022/10/30 00:09:36;;;;;;;13.45;6.40;;;;;;;;;;5102956;28;20206;-69
2022/10/30 00:12:04;;;;;;;16.42;6.68;;;;;;;;;;5103012;28;20203;-69
2022/10/30 00:14:31;;;;;;;11.52;6.75;;;;;;;;;;5102847;28;20203;-69
2022/10/30 00:16:57;;;;;;;13.07;6.57;;;;;;;;;;5103121;28;20491;-69
2022/10/30 00:19:23;;;;;;;23.30;7.93;;;;;;;;;;5102697;28;20196;-69
2022/10/30 00:21:50;;;;;;;15.98;7.35;;;;;;;;;;5102807;28;20200;-69
2022/10/30 00:24:16;;;;;;;17.95;7.38;;;;;;;;;;5102630;28;20219;-69
2022/10/30 00:26:42;;;;;;;14.88;7.45;;;;;;;;;;5102534;28;20196;-69
2022/10/30 00:29:10;;;;;;;18.70;7.00;;;;;;;;;;5102187;28;20216;-69
2022/10/30 00:31:36;;;;;;;15.02;7.75;;;;;;;;;;5102600;28;20468;-69
2022/10/30 00:34:02;;;;;;;14.30;7.20;;;;;;;;;;5102593;28;20192;-69
2022/10/30 00:36:29;;;;;;;14.85;7.68;;;;;;;;;;5102760;28;20572;-69
2022/10/30 00:38:55;;;;;;;12.82;7.13;;;;;;;;;;5102240;28;20200;-69
2022/10/30 00:41:22;;;;;;;14.82;7.32;;;;;;;;;;5102604;28;20214;-69
2022/10/30 00:43:48;;;;;;;12.88;7.18;;;;;;;;;;5102475;28;20303;-69
2022/10/30 00:46:18;;;;;;;21.65;7.53;;;;;;;;;;5102550;28;20515;-69
2022/10/30 00:48:45;;;;;;;14.70;7.07;;;;;;;;;;5102216;28;20499;-69
2022/10/30 00:51:12;;;;;;;15.07;7.70;;;;;;;;;;5102269;28;20515;-69
2022/10/30 00:53:39;;;;;;;12.73;7.03;;;;;;;;;;5102209;28;20233;-69
2022/10/30 00:56:06;;;;;;;19.55;7.55;;;;;;;;;;5102236;28;20494;-69
2022/10/30 00:58:35;;;;;;;20.10;7.82;;;;;;;;;;5102143;28;20203;-69
2022/10/30 01:01:03;;;;;;;14.45;7.57;;;;;;;;;;5102175;28;20196;-69
2022/10/30 01:03:31;;;;;;;14.05;7.07;;;;;;;;;;5102255;28;20219;-69
2022/10/30 01:06:00;;;;;;;14.75;7.20;;;;;;;;;;5102533;28;20200;-69
2022/10/30 01:08:26;;;;;;;18.63;6.93;;;;;;;;;;5101876;28;20392;-69
2022/10/30 01:10:52;;;;;;;11.60;7.13;;;;;;;;;;5101830;28;20199;-69
2022/10/30 01:13:20;;;;;;;16.80;7.35;;;;;;;;;;5102068;28;20215;-69
2022/10/30 01:15:53;;;;;;;13.05;6.78;;;;;;;;;;5101937;28;20525;-69
2022/10/30 01:18:25;;;;;;;14.85;7.10;;;;;;;;;;5101778;28;20203;-69
2022/10/30 01:21:03;;;;;;;17.33;6.63;;;;;;;;;;5102308;28;20196;-69
2022/10/30 01:23:35;;;;;;;22.85;7.00;;;;;;;;;;5101784;28;20226;-69
2022/10/30 01:26:07;;;;;;;16.55;7.05;;;;;;;;;;5102112;28;20196;-69
2022/10/30 01:28:43;;;;;;;19.75;8.13;;;;;;;;;;5101784;28;20353;-69
2022/10/30 01:31:16;;;;;;;17.77;7.03;;;;;;;;;;5101650;28;20245;-69
2022/10/30 01:33:48;;;;;;;16.88;7.47;;;;;;;;;;5101816;28;20379;-69
2022/10/30 01:36:20;;;;;;;15.18;7.60;;;;;;;;;;5101741;28;20192;-69
2022/10/30 01:38:49;;;;;;;22.90;6.90;;;;;;;;;;5101476;28;20248;-69
2022/10/30 01:41:15;;;;;;;16.95;7.32;;;;;;;;;;5101698;28;20525;-69
2022/10/30 01:43:42;;;;;;;13.73;6.95;;;;;;;;;;5101640;28;20410;-69
2022/10/30 01:46:14;;;;;;;12.80;7.65;;;;;;;;;;5101503;28;20421;-69
2022/10/30 01:48:56;;;;;;;11.82;5.97;;;;;;;;;;5101608;28;20273;-69
2022/10/30 01:51:31;;;;;;;12.88;6.72;;;;;;;;;;5101699;28;20195;-69
2022/10/30 01:54:01;;;;;;;15.70;6.68;;;;;;;;;;5101628;28;20192;-69
2022/10/30 01:56:33;;;;;;;12.23;6.47;;;;;;;;;;5101444;28;20195;-69
2022/10/30 01:59:03;;;;;;;9.80;6.20;;;;;;;;;;5101541;28;20211;-69
2022/10/30 02:01:32;;;;;;;10.15;6.78;;;;;;;;;;5101776;28;20344;-69
2022/10/30 02:03:58;;;;;;;11.27;6.20;;;;;;;;;;5101682;28;20219;-69
2022/10/30 02:06:26;;;;;;;16.00;6.70;;;;;;;;;;5101442;28;20204;-69
2022/10/30 02:08:54;;;;;;;12.82;6.47;;;;;;;;;;5101146;28;20200;-69
2022/10/30 02:11:21;;;;;;;13.90;6.43;;;;;;;;;;5101665;28;20278;-69
2022/10/30 02:13:47;;;;;;;12.52;6.03;;;;;;;;;;5101604;28;20207;-69
2022/10/30 02:16:14;;;;;;;11.95;6.28;;;;;;;;;;5102463;28;20379;-69
2022/10/30 02:18:40;;;;;;;16.13;7.13;;;;;;;;;;5104906;28;20195;-69
2022/10/30 02:21:08;;;;;;;16.17;6.40;;;;;;;;;;5105132;28;20204;-69
2022/10/30 02:23:34;;;;;;;12.48;5.65;;;;;;;;;;5104784;28;20215;-69
2022/10/30 02:26:00;;;;;;;12.73;6.20;;;;;;;;;;5104675;28;20226;-69
2022/10/30 02:28:27;;;;;;;12.38;6.88;;;;;;;;;;5104081;28;20263;-69
2022/10/30 02:30:53;;;;;;;12.07;6.38;;;;;;;;;;5104916;28;20191;-69
2022/10/30 02:33:19;;;;;;;12.15;5.85;;;;;;;;;;5104798;28;20198;-69
2022/10/30 02:35:45;;;;;;;21.88;7.10;;;;;;;;;;5105010;28;20368;-69
2022/10/30 02:38:13;;;;;;;13.80;6.32;;;;;;;;;;5104465;28;20218;-69
2022/10/30 02:40:39;;;;;;;11.82;6.38;;;;;;;;;;5104816;28;20385;-69
2022/10/30 02:43:06;;;;;;;13.88;6.68;;;;;;;;;;5104648;28;20196;-69
2022/10/30 02:45:33;;;;;;;15.27;6.22;;;;;;;;;;5104623;28;20215;-69
2022/10/30 02:47:59;;;;;;;14.07;6.82;;;;;;;;;;5104317;28;20212;-69
2022/10/30 02:50:26;;;;;;;11.23;6.20;;;;;;;;;;5104706;28;20196;-69
2022/10/30 02:52:52;;;;;;;19.60;7.15;;;;;;;;;;5104803;28;20196;-69
2022/10/30 02:55:20;;;;;;;13.88;6.00;;;;;;;;;;5104578;28;20222;-69
2022/10/30 02:57:46;;;;;;;15.43;6.22;;;;;;;;;;5104746;28;20202;-69
2022/10/30 03:00:13;;;;;;;11.32;5.80;;;;;;;;;;5104465;28;20199;-69
2022/10/30 03:02:39;;;;;;;14.57;5.70;;;;;;;;;;5104422;28;20417;-69
2022/10/30 03:05:06;;;;;;;20.88;6.20;;;;;;;;;;5104262;28;20219;-69
2022/10/30 03:07:32;;;;;;;12.77;5.95;;;;;;;;;;5104177;28;20195;-69
2022/10/30 03:09:58;;;;;;;15.70;5.80;;;;;;;;;;5103988;28;20515;-69
2022/10/30 03:12:26;;;;;;;11.48;5.65;;;;;;;;;;5104279;28;20204;-69
2022/10/30 03:14:52;;;;;;;15.15;5.95;;;;;;;;;;5103932;28;20199;-69
2022/10/30 03:17:19;;;;;;;13.25;5.88;;;;;;;;;;5104190;28;20208;-69
2022/10/30 03:19:45;;;;;;;17.48;6.18;;;;;;;;;;5103896;28;20231;-69
2022/10/30 03:22:11;;;;;;;13.18;6.43;;;;;;;;;;5103967;28;20195;-69
2022/10/30 03:24:37;;;;;;;14.02;5.93;;;;;;;;;;5103771;28;20222;-69
2022/10/30 03:27:04;;;;;;;13.10;5.68;;;;;;;;;;5103368;28;20196;-69
2022/10/30 03:29:31;;;;;;;10.40;5.30;;;;;;;;;;5102967;28;20223;-69
2022/10/30 03:31:58;;;;;;;13.68;5.40;;;;;;;;;;5103875;28;20394;-69
2022/10/30 03:34:24;;;;;;;9.25;5.38;;;;;;;;;;5103789;28;20215;-69
2022/10/30 03:36:50;;;;;;;13.50;5.90;;;;;;;;;;5103718;28;20202;-69
2022/10/30 03:39:16;;;;;;;17.58;6.10;;;;;;;;;;5103007;28;20200;-69
2022/10/30 03:41:43;;;;;;;11.82;5.68;;;;;;;;;;5103430;28;20200;-69
2022/10/30 03:44:09;;;;;;;7.10;5.20;;;;;;;;;;5103385;28;20216;-69
2022/10/30 03:46:37;;;;;;;13.88;5.15;;;;;;;;;;5103476;28;20203;-69
2022/10/30 03:49:04;;;;;;;10.18;5.30;;;;;;;;;;5103183;28;20498;-69
2022/10/30 03:51:30;;;;;;;6.90;5.18;;;;;;;;;;5103481;28;20445;-69
2022/10/30 03:53:56;;;;;;;15.38;5.57;;;;;;;;;;5103360;28;20191;-69
2022/10/30 03:56:22;;;;;;;10.30;5.88;;;;;;;;;;5103160;28;20196;-69
2022/10/30 03:58:49;;;;;;;13.23;5.90;;;;;;;;;;5102871;28;20207;-69
2022/10/30 04:01:15;;;;;;;12.70;5.45;;;;;;;;;;5103244;28;20383;-69
2022/10/30 04:03:43;;;;;;;9.25;5.88;;;;;;;;;;5103108;28;20238;-69
2022/10/30 04:06:09;;;;;;;14.38;7.28;;;;;;;;;;5103189;28;20196;-69
2022/10/30 04:08:35;;;;;;;12.88;6.80;;;;;;;;;;5102898;28;20425;-69
2022/10/30 04:11:02;;;;;;;15.43;6.93;;;;;;;;;;5102945;28;20202;-69
2022/10/30 04:13:28;;;;;;;14.10;6.68;;;;;;;;;;5103101;28;20196;-69
2022/10/30 04:15:54;;;;;;;18.33;7.45;;;;;;;;;;5102773;28;20199;-69
2022/10/30 04:18:20;;;;;;;11.35;6.05;;;;;;;;;;5102663;28;20211;-69
2022/10/30 04:20:48;;;;;;;16.67;7.20;;;;;;;;;;5102774;28;20200;-69
2022/10/30 04:23:15;;;;;;;13.65;6.15;;;;;;;;;;5102603;28;20192;-69
2022/10/30 04:25:42;;;;;;;13.02;6.65;;;;;;;;;;5102490;28;20563;-69
2022/10/30 04:28:08;;;;;;;12.85;5.85;;;;;;;;;;5102514;28;20417;-69
2022/10/30 04:30:35;;;;;;;11.18;6.00;;;;;;;;;;5102933;28;20195;-69
2022/10/30 04:33:02;;;;;;;14.20;6.00;;;;;;;;;;5102686;28;20207;-69
2022/10/30 04:35:30;;;;;;;12.80;6.45;;;;;;;;;;5102513;28;20237;-69
2022/10/30 04:37:58;;;;;;;16.60;6.30;;;;;;;;;;5102158;28;20246;-69
2022/10/30 04:40:25;;;;;;;7.50;5.32;;;;;;;;;;5102184;28;20203;-69
2022/10/30 04:42:52;;;;;;;14.32;6.28;;;;;;;;;;5102344;28;20210;-69
2022/10/30 04:45:18;;;;;;;12.35;5.72;;;;;;;;;;5102438;28;20219;-69
2022/10/30 04:47:44;;;;;;;8.73;5.32;;;;;;;;;;5102035;28;20203;-69
2022/10/30 04:50:11;;;;;;;14.65;5.93;;;;;;;;;;5102415;28;20517;-69
2022/10/30 04:52:38;;;;;;;8.70;5.50;;;;;;;;;;5102271;28;20196;-69
2022/10/30 04:55:06;;;;;;;15.43;6.18;;;;;;;;;;5102156;28;20206;-69
2022/10/30 04:57:33;;;;;;;14.25;6.35;;;;;;;;;;5102197;28;20212;-69
2022/10/30 04:59:59;;;;;;;12.18;5.68;;;;;;;;;;5101974;28;20196;-69
2022/10/30 05:02:25;;;;;;;10.30;5.47;;;;;;;;;;5102166;28;20195;-69
2022/10/30 05:04:52;;;;;;;9.68;5.90;;;;;;;;;;5102056;28;20298;-69
2022/10/30 05:07:18;;;;;;;7.53;5.38;;;;;;;;;;5101903;28;20196;-69
2022/10/30 05:09:44;;;;;;;14.13;5.88;;;;;;;;;;5102251;28;20202;-69
2022/10/30 05:12:12;;;;;;;13.45;5.70;;;;;;;;;;5101949;28;20195;-69
2022/10/30 05:14:38;;;;;;;9.52;5.10;;;;;;;;;;5102109;28;20237;-69
2022/10/30 05:17:05;;;;;;;8.00;4.95;;;;;;;;;;5102175;28;20233;-69
2022/10/30 05:19:31;;;;;;;11.00;5.28;;;;;;;;;;5101922;28;20207;-69
2022/10/30 05:21:57;;;;;;;11.23;6.00;;;;;;;;;;5102280;28;20202;-69
2022/10/30 05:24:23;;;;;;;7.95;5.18;;;;;;;;;;5102005;28;20215;-69
2022/10/30 05:26:50;;;;;;;9.38;5.47;;;;;;;;;;5102085;28;20192;-69
2022/10/30 05:29:17;;;;;;;10.48;5.70;;;;;;;;;;5101511;28;20375;-69
2022/10/30 05:31:44;;;;;;;9.60;5.68;;;;;;;;;;5101831;28;20203;-69
2022/10/30 05:34:10;;;;;;;10.30;5.75;;;;;;;;;;5101688;28;20192;-69
2022/10/30 05:36:36;;;;;;;13.32;5.60;;;;;;;;;;5101645;28;20233;-69
2022/10/30 05:39:03;;;;;;;12.13;5.60;;;;;;;;;;5101329;28;20203;-69
2022/10/30 05:41:29;;;;;;;11.98;5.97;;;;;;;;;;5101878;28;20199;-69
2022/10/30 05:43:56;;;;;;;13.77;5.22;;;;;;;;;;5101726;28;20196;-69
2022/10/30 05:46:23;;;;;;;11.30;5.40;;;;;;;;;;5101649;28;20373;-70
2022/10/30 05:48:49;;;;;;;12.30;5.38;;;;;;;;;;5101459;28;20199;-70
2022/10/30 05:51:16;;;;;;;12.52;5.60;;;;;;;;;;5102677;28;20233;-70
2022/10/30 05:53:42;;;;;;;11.07;5.47;;;;;;;;;;5105705;28;20203;-70
2022/10/30 05:56:08;;;;;;;7.65;5.13;;;;;;;;;;5105551;28;20196;-70
2022/10/30 05:58:34;;;;;;;12.68;6.25;;;;;;;;;;5105503;28;20196;-70
2022/10/30 06:01:04;;;;;;;13.88;5.80;;;;;;;;;;5105525;28;20267;-70
2022/10/30 06:03:32;;;;;;;10.15;5.45;;;;;;;;;;5105441;28;20196;-70
2022/10/30 06:05:58;;;;;;;14.23;5.30;;;;;;;;;;5105143;28;20253;-70
2022/10/30 06:08:24;;;;;;;13.48;5.95;;;;;;;;;;5105319;28;20195;-70
2022/10/30 06:10:51;;;;;;;15.68;6.05;;;;;;;;;;5105254;28;20195;-70
2022/10/30 06:13:17;;;;;;;11.93;5.93;;;;;;;;;;5105310;28;20519;-70
2022/10/30 06:15:43;;;;;;;15.80;6.53;;;;;;;;;;5105273;28;20198;-70
2022/10/30 06:18:09;;;;;;;10.23;5.80;;;;;;;;;;5104933;28;20202;-70
2022/10/30 06:20:37;;;;;;;10.60;5.53;;;;;;;;;;5105113;28;20200;-70
2022/10/30 06:23:05;;;;;;;11.63;4.68;;;;;;;;;;5105214;28;20196;-70
2022/10/30 06:25:32;;;;;;;14.20;5.70;;;;;;;;;;5105007;28;20216;-70
2022/10/30 06:27:58;;;;;;;13.20;7.32;;;;;;;;;;5104484;28;20219;-70
2022/10/30 06:30:25;;;;;;;10.88;6.43;;;;;;;;;;5105274;28;20195;-70
2022/10/30 06:32:55;;;;;;;17.67;6.65;;;;;;;;;;5104717;28;20217;-70
2022/10/30 06:35:21;;;;;;;9.73;5.70;;;;;;;;;;5104956;28;20223;-70
2022/10/30 06:37:50;;;;;;;9.23;6.40;;;;;;;;;;5104381;28;20204;-70
2022/10/30 06:40:16;;;;;;;14.60;6.18;;;;;;;;;;5104859;28;20428;-70
2022/10/30 06:42:43;;;;;;;14.80;6.28;;;;;;;;;;5104599;28;20203;-70
2022/10/30 06:45:10;;;;;;;22.02;7.25;;;;;;;;;;5104565;28;20243;-70
2022/10/30 06:47:36;;;;;;;10.63;6.20;;;;;;;;;;5104377;28;20211;-70
2022/10/30 06:50:03;;;;;;;10.30;6.30;;;;;;;;;;5098823;28;20204;-62
2022/10/30 06:52:29;;;;;;;12.73;6.60;;;;;;;;;;5094938;28;20208;-62
2022/10/30 06:54:57;;;;;;;13.57;5.97;;;;;;;;;;5094408;28;20216;-61
2022/10/30 06:57:23;;;;;;;11.13;5.78;;;;;;;;;;5078852;28;20201;-62
2022/10/30 06:59:49;;;;;;;10.95;5.60;;;;;;;;;;5078575;28;20216;-62
2022/10/30 07:02:16;;;;;;;12.38;5.90;;;;;;;;;;5079154;28;20208;-62
2022/10/30 07:04:44;;;;;;;18.30;6.07;;;;;;;;;;5079295;28;20232;-62
2022/10/30 07:07:10;;;;;;;15.63;6.03;;;;;;;;;;5079564;28;20215;-61
2022/10/30 07:09:36;;;;;;;10.68;6.18;;;;;;;;;;5093282;28;20208;-62
2022/10/30 07:12:04;;;;;;;13.88;6.13;;;;;;;;;;5098696;28;20203;-62
2022/10/30 07:14:31;;;;;;;12.88;6.07;;;;;;;;;;5097773;28;20200;-62
2022/10/30 07:16:57;;;;;;;12.82;6.90;;;;;;;;;;5098349;28;20217;-62
2022/10/30 07:19:24;;;;;;;17.20;5.95;;;;;;;;;;5098238;28;20397;-62
2022/10/30 07:21:50;;;;;;;13.65;6.00;;;;;;;;;;5097587;28;20215;-62
2022/10/30 07:24:16;;;;;;;13.52;6.55;;;;;;;;;;5098120;28;20211;-62
2022/10/30 07:26:43;;;;;;;8.35;5.47;;;;;;;;;;5098033;28;20310;-62
2022/10/30 07:29:10;;;;;;;13.70;6.30;;;;;;;;;;5097634;28;20231;-62
2022/10/30 07:31:37;;;;;;;15.07;6.30;;;;;;;;;;5097981;28;20410;-62
2022/10/30 07:34:03;;;;;;;17.25;7.57;;;;;;;;;;5098140;28;20207;-62
2022/10/30 07:36:29;;;;;;;12.38;6.05;;;;;;;;;;5096508;28;20211;-63
2022/10/30 07:38:56;;;;;;;19.52;8.32;;;;;;;;;;5097491;28;20223;-62
2022/10/30 07:41:22;;;;;;;28.55;9.57;;;;;;;;;;5097782;28;20207;-61
2022/10/30 07:43:48;;;;;;;18.10;8.57;;;;;;;;;;5097364;28;20211;-62
2022/10/30 07:46:16;;;;;;;26.50;10.30;;;;;;;;;;5097314;28;20230;-62
2022/10/30 07:48:42;;;;;;;29.60;12.40;;;;;;;;;;5097049;28;20414;-61
2022/10/30 07:51:08;;;;;;;32.53;11.90;;;;;;;;;;5090808;28;20222;-62
2022/10/30 07:53:35;;;;;;;33.05;11.20;;;;;;;;;;5112088;28;20208;-62
2022/10/30 07:56:01;;;;;;;30.75;11.20;;;;;;;;;;5097807;28;20562;-63
2022/10/30 07:58:27;;;;;;;28.98;10.13;;;;;;;;;;5097100;28;20207;-61
2022/10/30 08:00:53;;;;;;;27.80;10.15;;;;;;;;;;5097366;28;20242;-62
2022/10/30 08:03:21;;;;;;;25.90;9.90;;;;;;;;;;5096706;28;20216;-62
2022/10/30 08:05:47;;;;;;;30.73;9.90;;;;;;;;;;5098123;28;20456;-63
2022/10/30 08:08:14;;;;;;;23.40;9.65;;;;;;;;;;5102500;28;20266;-63
2022/10/30 08:10:40;;;;;;;16.70;7.43;;;;;;;;;;5102481;28;20503;-62
2022/10/30 08:13:06;;;;;;;16.45;7.57;;;;;;;;;;5102651;28;20199;-63
2022/10/30 08:15:32;;;;;;;19.55;6.82;;;;;;;;;;5102243;28;20199;-63
2022/10/30 08:17:59;;;;;;;17.98;6.80;;;;;;;;;;5102298;28;20203;-63
2022/10/30 08:20:26;;;;;;;22.42;6.93;;;;;;;;;;5102489;28;20616;-63
2022/10/30 08:22:53;;;;;;;13.18;6.32;;;;;;;;;;5102473;28;20218;-63
2022/10/30 08:25:22;;;;;;;15.75;6.75;;;;;;;;;;5102406;28;20422;-63
2022/10/30 08:27:52;;;;;;;10.63;6.10;;;;;;;;;;5102473;28;20526;-62
2022/10/30 08:30:18;;;;;;;15.10;6.32;;;;;;;;;;5102339;28;20202;-62
2022/10/30 08:32:44;;;;;;;18.67;6.25;;;;;;;;;;5102397;28;20423;-64
2022/10/30 08:35:11;;;;;;;13.98;6.30;;;;;;;;;;5102650;28;20196;-64
2022/10/30 08:37:38;;;;;;;15.32;7.38;;;;;;;;;;5101994;28;20212;-64
2022/10/30 08:40:05;;;;;;;15.80;7.13;;;;;;;;;;5102409;28;20499;-64
2022/10/30 08:42:32;;;;;;;23.27;7.50;;;;;;;;;;5102892;28;20201;-63
2022/10/30 08:44:58;;;;;;;18.88;7.68;;;;;;;;;;5102281;28;20195;-64
2022/10/30 08:47:24;;;;;;;19.27;7.43;;;;;;;;;;5102507;28;20203;-64
2022/10/30 08:49:50;;;;;;;17.17;7.80;;;;;;;;;;5102181;28;20206;-64
2022/10/30 08:52:17;;;;;;;16.85;6.45;;;;;;;;;;5102335;28;20372;-64
2022/10/30 08:54:44;;;;;;;16.30;6.05;;;;;;;;;;5102470;28;20208;-64
2022/10/30 08:57:10;;;;;;;16.42;5.50;;;;;;;;;;5102439;28;20198;-63
2022/10/30 08:59:37;;;;;;;14.10;4.80;;;;;;;;;;5102199;28;20203;-64
2022/10/30 09:02:03;;;;;;;11.90;4.32;;;;;;;;;;5102387;28;20225;-64
2022/10/30 09:04:29;;;;;;;11.57;4.95;;;;;;;;;;5102318;28;20558;-64
2022/10/30 09:06:56;;;;;;;15.18;4.82;;;;;;;;;;5102174;28;20215;-63
2022/10/30 09:09:22;;;;;;;18.20;5.20;;;;;;;;;;5102168;28;20202;-64
2022/10/30 09:11:49;;;;;;;15.95;4.72;;;;;;;;;;5102335;28;20195;-64
2022/10/30 09:14:16;;;;;;;16.60;5.07;;;;;;;;;;5102186;28;20192;-64
2022/10/30 09:16:42;;;;;;;13.07;4.60;;;;;;;;;;5102169;28;20191;-64
2022/10/30 09:19:09;;;;;;;12.07;5.10;;;;;;;;;;5101931;28;20364;-64
2022/10/30 09:21:35;;;;;;;17.77;4.90;;;;;;;;;;5102002;28;20585;-64
2022/10/30 09:24:01;;;;;;;9.05;4.20;;;;;;;;;;5102286;28;20196;-64
2022/10/30 09:26:28;;;;;;;14.02;5.43;;;;;;;;;;5103655;28;20226;-64
2022/10/30 09:28:56;;;;;;;12.00;4.78;;;;;;;;;;5106086;28;20219;-64
2022/10/30 09:31:22;;;;;;;16.40;5.15;;;;;;;;;;5106317;28;20201;-64
2022/10/30 09:33:48;;;;;;;8.98;4.57;;;;;;;;;;5106081;28;20203;-64
2022/10/30 09:36:15;;;;;;;16.52;5.68;;;;;;;;;;5106013;28;20206;-64
2022/10/30 09:38:42;;;;;;;14.38;5.57;;;;;;;;;;5105760;28;20624;-64
2022/10/30 09:41:19;;;;;;;16.30;5.90;;;;;;;;;;5106138;28;20399;-64
2022/10/30 09:43:51;;;;;;;17.02;5.90;;;;;;;;;;5106295;28;20225;-64
2022/10/30 09:46:29;;;;;;;18.70;6.25;;;;;;;;;;5105773;28;20226;-64
2022/10/30 09:49:14;;;;;;;17.60;6.25;;;;;;;;;;5106035;28;20203;-64
2022/10/30 09:51:56;;;;;;;15.40;5.72;;;;;;;;;;5105937;28;20305;-64
2022/10/30 09:54:25;;;;;;;11.98;5.25;;;;;;;;;;5105938;28;20191;-64
2022/10/30 09:56:54;;;;;;;15.07;6.28;;;;;;;;;;5105658;28;20191;-64
2022/10/30 09:59:24;;;;;;;17.17;5.65;;;;;;;;;;5105382;28;20203;-64
2022/10/30 10:01:54;;;;;;;15.98;4.85;;;;;;;;;;5105609;28;20195;-64
2022/10/30 10:04:24;;;;;;;18.50;5.68;;;;;;;;;;5105644;28;20419;-64
2022/10/30 10:06:54;;;;;;;20.67;5.88;;;;;;;;;;5105554;28;20422;-64
2022/10/30 10:09:22;;;;;;;16.38;5.55;;;;;;;;;;5105312;28;20503;-64
2022/10/30 10:11:52;;;;;;;16.73;5.05;;;;;;;;;;5105351;28;20196;-64
2022/10/30 10:14:21;;;;;;;20.77;5.35;;;;;;;;;;5105784;28;20487;-64
2022/10/30 10:16:49;;;;;;;16.15;5.40;;;;;;;;;;5105292;28;20192;-64
2022/10/30 10:19:19;;;;;;;15.50;5.20;;;;;;;;;;5105305;28;20506;-64
2022/10/30 10:21:47;;;;;;;23.75;6.10;;;;;;;;;;5105442;28;20195;-64
2022/10/30 10:24:15;;;;;;;10.00;5.10;;;;;;;;;;5105591;28;20365;-64
2022/10/30 10:26:47;;;;;;;15.15;5.05;;;;;;;;;;5105222;28;20580;-64
2022/10/30 10:29:28;;;;;;;18.23;5.15;;;;;;;;;;5104758;28;20216;-64
2022/10/30 10:32:01;;;;;;;14.65;5.85;;;;;;;;;;5105233;28;20507;-64
2022/10/30 10:34:35;;;;;;;14.55;5.70;;;;;;;;;;5105036;28;20204;-64
2022/10/30 10:37:06;;;;;;;16.23;5.03;;;;;;;;;;5104602;28;20192;-64
2022/10/30 10:39:39;;;;;;;14.50;5.15;;;;;;;;;;5104617;28;20214;-64
2022/10/30 10:42:13;;;;;;;11.90;4.68;;;;;;;;;;5104999;28;20202;-64
2022/10/30 10:44:44;;;;;;;12.13;4.25;;;;;;;;;;5104984;28;20200;-64
2022/10/30 10:47:31;;;;;;;10.80;4.07;;;;;;;;;;5104600;28;20212;-64
2022/10/30 10:50:03;;;;;;;10.85;4.72;;;;;;;;;;5104521;28;20503;-64
2022/10/30 10:52:35;;;;;;;16.60;4.85;;;;;;;;;;5104844;28;20263;-64
2022/10/30 10:55:04;;;;;;;12.68;4.15;;;;;;;;;;5104629;28;20199;-64
2022/10/30 10:57:33;;;;;;;13.65;4.78;;;;;;;;;;5104479;28;20383;-64
2022/10/30 11:00:02;;;;;;;10.88;4.70;;;;;;;;;;5104650;28;20428;-64
2022/10/30 11:02:30;;;;;;;11.23;4.03;;;;;;;;;;5104800;28;20521;-62
2022/10/30 11:05:00;;;;;;;12.65;4.10;;;;;;;;;;5104525;28;20195;-63
2022/10/30 11:07:30;;;;;;;9.63;4.60;;;;;;;;;;5104229;28;20220;-62
2022/10/30 11:09:57;;;;;;;17.48;5.32;;;;;;;;;;5104154;28;20203;-63
2022/10/30 11:12:25;;;;;;;12.88;5.43;;;;;;;;;;5104491;28;20503;-63
2022/10/30 11:14:51;;;;;;;19.00;5.10;;;;;;;;;;5104304;28;20395;-63
2022/10/30 11:17:20;;;;;;;16.63;5.20;;;;;;;;;;5104280;28;20428;-63
2022/10/30 11:19:47;;;;;;;15.10;4.35;;;;;;;;;;5103978;28;20196;-63
2022/10/30 11:22:18;;;;;;;9.18;3.70;;;;;;;;;;5104019;28;20196;-63
2022/10/30 11:24:46;;;;;;;14.20;4.22;;;;;;;;;;5103948;28;20183;-63
2022/10/30 11:27:17;;;;;;;15.68;4.47;;;;;;;;;;5103892;28;20234;-63
2022/10/30 11:29:48;;;;;;;18.02;5.43;;;;;;;;;;5103766;28;20191;-63
2022/10/30 11:32:17;;;;;;;18.48;6.35;;;;;;;;;;5104025;28;20218;-63
2022/10/30 11:34:44;;;;;;;13.80;5.50;;;;;;;;;;5103829;28;20200;-63
2022/10/30 11:37:29;;;;;;;15.48;5.38;;;;;;;;;;5103701;28;20203;-63
2022/10/30 11:40:03;;;;;;;13.30;4.72;;;;;;;;;;5103768;28;20344;-63
2022/10/30 11:42:29;;;;;;;12.80;4.60;;;;;;;;;;5103797;28;20283;-63
2022/10/30 11:44:55;;;;;;;10.98;3.97;;;;;;;;;;5103723;28;20201;-63
2022/10/30 11:47:27;;;;;;;10.52;4.20;;;;;;;;;;5103194;28;20218;-63
2022/10/30 11:49:55;;;;;;;13.10;4.63;;;;;;;;;;5102684;28;20202;-63
2022/10/30 11:52:22;;;;;;;11.80;5.10;;;;;;;;;;5103694;28;20203;-63
2022/10/30 11:54:50;;;;;;;11.88;4.45;;;;;;;;;;5103574;28;20196;-63
2022/10/30 11:57:21;;;;;;;12.02;4.45;;;;;;;;;;5103357;28;20507;-63
2022/10/30 11:59:50;;;;;;;10.13;3.90;;;;;;;;;;5103131;28;20370;-63
2022/10/30 12:02:20;;;;;;;10.00;3.83;;;;;;;;;;5103328;28;20478;-63
2022/10/30 12:04:47;;;;;;;20.85;8.80;;;;;;;;;;5103452;28;20414;-63
2022/10/30 12:07:18;;;;;;;9.13;4.78;;;;;;;;;;5103199;28;20260;-63
2022/10/30 12:09:45;;;;;;;19.08;5.60;;;;;;;;;;5103105;28;20476;-63
2022/10/30 12:12:12;;;;;;;10.25;4.10;;;;;;;;;;5103209;28;20568;-63
2022/10/30 12:14:40;;;;;;;9.05;3.92;;;;;;;;;;5103017;28;20199;-63
2022/10/30 12:17:06;;;;;;;10.10;4.25;;;;;;;;;;5102923;28;20199;-63
2022/10/30 12:19:32;;;;;;;11.40;4.40;;;;;;;;;;5102824;28;20230;-63
2022/10/30 12:22:00;;;;;;;14.70;5.20;;;;;;;;;;5102927;28;20202;-63
2022/10/30 12:24:30;;;;;;;14.98;7.68;;;;;;;;;;5102856;28;20202;-63
2022/10/30 12:26:56;;;;;;;16.13;6.70;;;;;;;;;;5102575;28;20530;-63
2022/10/30 12:29:25;;;;;;;17.38;5.93;;;;;;;;;;5102767;28;20443;-63
2022/10/30 12:31:55;;;;;;;19.27;6.25;;;;;;;;;;5102924;28;20195;-63
2022/10/30 12:34:31;;;;;;;15.10;8.27;;;;;;;;;;5103191;28;20195;-62
2022/10/30 12:37:03;;;;;;;15.38;5.80;;;;;;;;;;5102825;28;20225;-63
2022/10/30 12:39:30;;;;;;;9.38;5.55;;;;;;;;;;5102535;28;20210;-61
2022/10/30 12:41:59;;;;;;;17.75;4.07;;;;;;;;;;5103268;28;20199;-62
2022/10/30 12:44:27;;;;;;;11.63;4.10;;;;;;;;;;5102555;28;20210;-62
2022/10/30 12:46:56;;;;;;;11.95;4.20;;;;;;;;;;5102114;28;20250;-62
2022/10/30 12:49:25;;;;;;;10.02;4.20;;;;;;;;;;5101625;28;20204;-62
2022/10/30 12:51:54;;;;;;;8.88;3.33;;;;;;;;;;5101853;28;20202;-62
2022/10/30 12:54:24;;;;;;;15.50;4.68;;;;;;;;;;5101846;28;20510;-62
2022/10/30 12:56:55;;;;;;;11.50;4.50;;;;;;;;;;5102161;28;20191;-62
2022/10/30 12:59:30;;;;;;;12.13;4.80;;;;;;;;;;5101778;28;20274;-62
2022/10/30 13:01:59;;;;;;;8.27;3.38;;;;;;;;;;5102130;28;20217;-62
2022/10/30 13:04:26;;;;;;;9.23;3.92;;;;;;;;;;5102138;28;20503;-62
2022/10/30 13:06:57;;;;;;;7.35;3.63;;;;;;;;;;5102362;28;20541;-62
2022/10/30 13:09:26;;;;;;;11.30;4.25;;;;;;;;;;5102297;28;20248;-62
2022/10/30 13:11:55;;;;;;;8.63;3.50;;;;;;;;;;5102341;28;20218;-62
2022/10/30 13:14:22;;;;;;;8.65;3.72;;;;;;;;;;5102137;28;20413;-62
2022/10/30 13:16:50;;;;;;;8.57;3.50;;;;;;;;;;5102126;28;20521;-62
2022/10/30 13:19:18;;;;;;;7.57;4.07;;;;;;;;;;5101905;28;20195;-62
2022/10/30 13:21:49;;;;;;;4.93;3.45;;;;;;;;;;5102139;28;20195;-62
2022/10/30 13:24:18;;;;;;;11.00;4.13;;;;;;;;;;5102635;28;20218;-62
2022/10/30 13:26:47;;;;;;;11.65;3.85;;;;;;;;;;5102059;28;20226;-62
2022/10/30 13:29:19;;;;;;;10.65;4.22;;;;;;;;;;5101763;28;20218;-62
2022/10/30 13:31:53;;;;;;;10.95;4.35;;;;;;;;;;5102280;28;20196;-62
2022/10/30 13:34:29;;;;;;;8.38;3.72;;;;;;;;;;5102212;28;20428;-62
2022/10/30 13:36:57;;;;;;;9.85;3.97;;;;;;;;;;5102298;28;20522;-62
2022/10/30 13:39:27;;;;;;;7.53;3.30;;;;;;;;;;5101878;28;20560;-62
2022/10/30 13:42:02;;;;;;;6.88;3.30;;;;;;;;;;5101940;28;20202;-62
2022/10/30 13:44:33;;;;;;;7.35;3.50;;;;;;;;;;5102007;28;20195;-62
2022/10/30 13:47:04;;;;;;;12.75;3.50;;;;;;;;;;5102237;28;20227;-62
2022/10/30 13:49:49;;;;;;;10.13;3.72;;;;;;;;;;5101769;28;20502;-62
2022/10/30 13:52:16;;;;;;;5.82;3.42;;;;;;;;;;5101844;28;20206;-62
2022/10/30 13:54:45;;;;;;;7.97;3.22;;;;;;;;;;5101676;28;20502;-62
2022/10/30 13:57:15;;;;;;;7.80;3.85;;;;;;;;;;5101906;28;20196;-62
2022/10/30 13:59:46;;;;;;;9.30;3.60;;;;;;;;;;5101329;28;20195;-62
2022/10/30 14:02:16;;;;;;;7.63;3.25;;;;;;;;;;5101740;28;20195;-62
2022/10/30 14:04:47;;;;;;;8.05;3.20;;;;;;;;;;5101682;28;20503;-62
2022/10/30 14:07:20;;;;;;;8.70;4.15;;;;;;;;;;5101605;28;20526;-62
2022/10/30 14:09:53;;;;;;;7.13;3.50;;;;;;;;;;5101603;28;20199;-62
2022/10/30 14:12:38;;;;;;;10.52;3.30;;;;;;;;;;5102864;28;20195;-62
2022/10/30 14:15:05;;;;;;;13.27;3.47;;;;;;;;;;5105440;28;20202;-62
2022/10/30 14:17:31;;;;;;;5.75;3.60;;;;;;;;;;5105247;28;20191;-62
2022/10/30 14:20:16;;;;;;;8.65;3.45;;;;;;;;;;5105247;28;20211;-62
2022/10/30 14:23:04;;;;;;;8.00;3.83;;;;;;;;;;5105348;28;20384;-62
2022/10/30 14:25:30;;;;;;;10.38;4.05;;;;;;;;;;5105307;28;20259;-62
2022/10/30 14:27:56;;;;;;;10.55;3.88;;;;;;;;;;5104659;28;20545;-62
2022/10/30 14:30:26;;;;;;;9.05;3.55;;;;;;;;;;5105254;28;20207;-62
2022/10/30 14:32:52;;;;;;;6.72;3.63;;;;;;;;;;5105069;28;20199;-62
2022/10/30 14:35:33;;;;;;;9.32;3.70;;;;;;;;;;5104899;28;20195;-62
2022/10/30 14:38:27;;;;;;;10.45;3.65;;;;;;;;;;5104642;28;20199;-62